Time;durP1;ratioP1;P1;durP2;ratioP2;P2;SDS_P1;SDS_P2;PMS_P1;PMS_P2;Temp;Humidity;BMP_temperature;BMP_pressure;BME280_temperature;BME280_humidity;BME280_pressure;Samples;Min_cycle;Max_cycle;Signal;HPM_P1;HPM_P2
2022/12/26 00:03:19;;;;;;;2.17;2.13;;;;;;;;;;10505387;28;20615;-72
2022/12/26 00:08:20;;;;;;;3.92;2.42;;;;;;;;;;10501827;28;20335;-72
2022/12/26 00:13:22;;;;;;;2.00;1.90;;;;;;;;;;10502132;28;20202;-73
2022/12/26 00:18:23;;;;;;;2.55;2.30;;;;;;;;;;10499283;28;20973;-73
2022/12/26 00:23:24;;;;;;;5.43;2.25;;;;;;;;;;10485292;28;21311;-73
2022/12/26 00:28:25;;;;;;;1.83;1.70;;;;;;;;;;10482839;28;20241;-73
2022/12/26 00:33:26;;;;;;;2.03;1.92;;;;;;;;;;10500293;28;20679;-74
2022/12/26 00:38:27;;;;;;;2.50;2.30;;;;;;;;;;10501395;28;21957;-74
2022/12/26 00:43:28;;;;;;;2.13;2.03;;;;;;;;;;10500779;28;20225;-73
2022/12/26 00:48:29;;;;;;;1.85;1.75;;;;;;;;;;10478264;28;20213;-73
2022/12/26 00:53:30;;;;;;;3.47;1.83;;;;;;;;;;10502208;28;20212;-74
2022/12/26 00:58:31;;;;;;;1.80;1.70;;;;;;;;;;10498312;28;20214;-73
2022/12/26 01:03:32;;;;;;;2.45;2.33;;;;;;;;;;10499676;28;20205;-74
2022/12/26 01:08:34;;;;;;;2.38;2.20;;;;;;;;;;10484575;28;20259;-73
2022/12/26 01:13:35;;;;;;;2.08;1.88;;;;;;;;;;10482876;28;20232;-74
2022/12/26 01:18:36;;;;;;;4.38;2.33;;;;;;;;;;10502956;28;20205;-73
2022/12/26 01:23:37;;;;;;;2.60;2.13;;;;;;;;;;10501058;28;20308;-73
2022/12/26 01:28:38;;;;;;;2.78;2.17;;;;;;;;;;10501248;28;20242;-74
2022/12/26 01:33:39;;;;;;;2.30;2.13;;;;;;;;;;10503466;28;20229;-73
2022/12/26 01:38:40;;;;;;;7.88;1.95;;;;;;;;;;10500926;28;20213;-74
2022/12/26 01:44:01;;;;;;;2.00;1.92;;;;;;;;;;10503718;28;20213;-73
2022/12/26 01:49:07;;;;;;;2.45;1.92;;;;;;;;;;10482783;28;20213;-73
2022/12/26 01:54:08;;;;;;;4.00;2.40;;;;;;;;;;10500953;28;20602;-73
2022/12/26 01:59:16;;;;;;;2.47;2.28;;;;;;;;;;10485298;28;20308;-74
2022/12/26 02:09:39;;;;;;;1.70;1.60;;;;;;;;;;10505236;28;20731;-73
2022/12/26 02:14:41;;;;;;;1.42;1.42;;;;;;;;;;10503839;28;20443;-74
2022/12/26 02:19:42;;;;;;;1.05;1.05;;;;;;;;;;10486399;28;20217;-73
2022/12/26 02:24:52;;;;;;;1.30;1.30;;;;;;;;;;10508744;28;20213;-74
2022/12/26 02:30:05;;;;;;;1.10;1.10;;;;;;;;;;10507024;28;20210;-74
2022/12/26 02:35:17;;;;;;;1.67;1.40;;;;;;;;;;10482584;28;20768;-73
2022/12/26 02:40:27;;;;;;;1.50;1.40;;;;;;;;;;10485411;28;20673;-73
2022/12/26 03:18:10;;;;;;;2.33;1.25;;;;;;;;;;10505405;28;20224;-74
2022/12/26 03:23:12;;;;;;;1.60;1.50;;;;;;;;;;10493823;28;20205;-74
2022/12/26 03:28:14;;;;;;;4.70;1.80;;;;;;;;;;10491981;28;20931;-73
2022/12/26 04:19:22;;;;;;;2.38;1.50;;;;;;;;;;10503356;28;20262;-73
2022/12/26 04:44:44;;;;;;;0.93;0.90;;;;;;;;;;10501470;28;20206;-73
2022/12/26 04:55:05;;;;;;;0.90;0.90;;;;;;;;;;10501567;28;20717;-73
2022/12/26 05:00:06;;;;;;;0.70;0.70;;;;;;;;;;10487406;28;20197;-74
2022/12/26 05:10:28;;;;;;;1.63;0.85;;;;;;;;;;10482856;28;20221;-73
2022/12/26 05:28:40;;;;;;;1.95;0.60;;;;;;;;;;10499391;28;20217;-73
2022/12/26 05:31:34;;;;;;;0.70;0.70;;;;;;;;;;10503845;28;20244;-73
2022/12/26 05:36:35;;;;;;;0.70;0.70;;;;;;;;;;10509224;28;20309;-73
2022/12/26 05:41:37;;;;;;;0.70;0.70;;;;;;;;;;10510042;28;20229;-73
2022/12/26 05:46:38;;;;;;;0.70;0.70;;;;;;;;;;10511459;28;20693;-74
2022/12/26 05:51:39;;;;;;;0.40;0.40;;;;;;;;;;10507529;28;20248;-73
2022/12/26 05:56:40;;;;;;;1.33;1.33;;;;;;;;;;10496086;28;20205;-73
2022/12/26 06:01:41;;;;;;;0.80;0.80;;;;;;;;;;10506131;28;20599;-73
2022/12/26 06:06:42;;;;;;;0.60;0.60;;;;;;;;;;10510129;28;20213;-72
2022/12/26 06:11:43;;;;;;;0.57;0.57;;;;;;;;;;10514376;28;20213;-72
2022/12/26 06:16:45;;;;;;;0.60;0.60;;;;;;;;;;10510851;28;20222;-72
2022/12/26 06:21:46;;;;;;;0.57;0.57;;;;;;;;;;10507683;28;20217;-73
2022/12/26 06:26:48;;;;;;;1.02;1.02;;;;;;;;;;10509396;28;20714;-73
2022/12/26 06:31:49;;;;;;;0.77;0.77;;;;;;;;;;10507056;28;20240;-74
2022/12/26 06:36:50;;;;;;;0.85;0.60;;;;;;;;;;10507106;28;20221;-74
2022/12/26 06:41:51;;;;;;;0.50;0.50;;;;;;;;;;10484965;28;20707;-73
2022/12/26 06:46:52;;;;;;;0.90;0.90;;;;;;;;;;10499350;28;20214;-73
2022/12/26 06:51:53;;;;;;;0.63;0.63;;;;;;;;;;10508058;28;20271;-73
2022/12/26 06:56:54;;;;;;;0.65;0.40;;;;;;;;;;10510395;28;20784;-73
2022/12/26 07:01:55;;;;;;;0.55;0.55;;;;;;;;;;10511503;28;20282;-73
2022/12/26 07:06:56;;;;;;;0.50;0.50;;;;;;;;;;10500035;28;20576;-74
2022/12/26 07:11:57;;;;;;;0.95;0.30;;;;;;;;;;10504149;28;20607;-73
2022/12/26 07:16:58;;;;;;;1.35;1.05;;;;;;;;;;10505017;28;20247;-73
2022/12/26 07:21:59;;;;;;;0.30;0.30;;;;;;;;;;10486330;28;20316;-73
2022/12/26 07:27:00;;;;;;;0.50;0.50;;;;;;;;;;10484645;28;20214;-73
2022/12/26 07:32:01;;;;;;;0.50;0.50;;;;;;;;;;10497398;28;20218;-72
2022/12/26 07:37:03;;;;;;;1.55;0.50;;;;;;;;;;10501983;28;20301;-73
2022/12/26 07:42:04;;;;;;;0.40;0.40;;;;;;;;;;10503463;28;20230;-72
2022/12/26 07:47:06;;;;;;;0.40;0.40;;;;;;;;;;10505493;28;20229;-73
2022/12/26 07:52:07;;;;;;;0.47;0.47;;;;;;;;;;10483202;28;21015;-73
2022/12/26 07:57:09;;;;;;;0.50;0.40;;;;;;;;;;10502870;28;20213;-72
2022/12/26 08:02:10;;;;;;;0.40;0.40;;;;;;;;;;10490181;28;20228;-73
2022/12/26 08:07:12;;;;;;;0.35;0.35;;;;;;;;;;10500383;28;20347;-73
2022/12/26 08:12:13;;;;;;;0.45;0.40;;;;;;;;;;10500084;28;20695;-73
2022/12/26 08:17:14;;;;;;;0.68;0.68;;;;;;;;;;10497871;28;20414;-75
2022/12/26 08:22:15;;;;;;;0.70;0.70;;;;;;;;;;10502383;28;20221;-74
2022/12/26 08:27:16;;;;;;;3.60;0.50;;;;;;;;;;10482621;28;20648;-73
2022/12/26 08:32:17;;;;;;;0.50;0.50;;;;;;;;;;10505001;28;20206;-74
2022/12/26 08:37:18;;;;;;;1.20;0.50;;;;;;;;;;10504451;28;20594;-73
2022/12/26 08:42:22;;;;;;;0.50;0.50;;;;;;;;;;10506110;28;20262;-74
2022/12/26 08:47:26;;;;;;;0.52;0.52;;;;;;;;;;10493186;28;20229;-74
2022/12/26 08:52:27;;;;;;;0.68;0.68;;;;;;;;;;10502120;28;21751;-74
2022/12/26 08:57:28;;;;;;;0.70;0.50;;;;;;;;;;10500938;28;20209;-74
2022/12/26 09:02:29;;;;;;;0.40;0.40;;;;;;;;;;10505700;28;20745;-79
2022/12/26 09:07:30;;;;;;;1.48;0.60;;;;;;;;;;10501217;28;20205;-77
2022/12/26 09:12:31;;;;;;;0.80;0.80;;;;;;;;;;10496750;28;20715;-76
2022/12/26 09:17:32;;;;;;;2.35;2.15;;;;;;;;;;10488560;28;20267;-75
2022/12/26 09:22:51;;;;;;;4.43;4.15;;;;;;;;;;10495652;28;20228;-74
2022/12/26 09:27:53;;;;;;;1.52;1.52;;;;;;;;;;10500890;28;20214;-74
2022/12/26 09:32:54;;;;;;;1.88;1.80;;;;;;;;;;10499297;28;20225;-75
2022/12/26 09:37:55;;;;;;;1.70;1.70;;;;;;;;;;10494984;28;20239;-75
2022/12/26 09:42:59;;;;;;;1.25;1.25;;;;;;;;;;10480255;28;20264;-74
2022/12/26 09:48:13;;;;;;;1.17;1.17;;;;;;;;;;10498574;28;20218;-75
2022/12/26 09:53:17;;;;;;;1.52;1.48;;;;;;;;;;10503202;28;20317;-77
2022/12/26 09:58:25;;;;;;;1.48;1.38;;;;;;;;;;10492510;28;20218;-75
2022/12/26 10:03:27;;;;;;;2.13;2.03;;;;;;;;;;10499892;28;21109;-78
2022/12/26 10:08:40;;;;;;;1.92;1.83;;;;;;;;;;10500941;28;20213;-76
2022/12/26 10:13:51;;;;;;;5.97;1.40;;;;;;;;;;10485031;28;20205;-75
2022/12/26 10:18:58;;;;;;;2.00;1.13;;;;;;;;;;10484313;28;20611;-76
2022/12/26 10:24:12;;;;;;;1.73;1.63;;;;;;;;;;10502524;28;20214;-76
2022/12/26 10:29:18;;;;;;;1.98;1.73;;;;;;;;;;10505992;28;20282;-76
2022/12/26 10:34:22;;;;;;;1.50;1.40;;;;;;;;;;10500837;28;20312;-76
2022/12/26 10:39:29;;;;;;;1.83;1.83;;;;;;;;;;10501417;28;20272;-76
2022/12/26 10:44:30;;;;;;;1.42;1.33;;;;;;;;;;10504301;28;20668;-76
2022/12/26 10:49:31;;;;;;;2.10;2.03;;;;;;;;;;10503900;28;20253;-76
2022/12/26 10:54:32;;;;;;;1.77;1.60;;;;;;;;;;10477925;28;20705;-76
2022/12/26 10:59:41;;;;;;;1.90;1.80;;;;;;;;;;10482268;28;20834;-77
2022/12/26 11:04:56;;;;;;;1.67;1.63;;;;;;;;;;10488787;28;20688;-77
2022/12/26 11:09:57;;;;;;;3.90;2.40;;;;;;;;;;10504199;28;20690;-77
2022/12/26 11:14:59;;;;;;;2.58;2.40;;;;;;;;;;10498917;28;20261;-77
2022/12/26 11:20:12;;;;;;;3.78;3.47;;;;;;;;;;10501044;28;20259;-76
2022/12/26 11:25:13;;;;;;;3.53;3.30;;;;;;;;;;10505297;28;20251;-76
2022/12/26 11:30:14;;;;;;;3.67;3.38;;;;;;;;;;10496173;28;20182;-78
2022/12/26 11:35:20;;;;;;;2.78;2.65;;;;;;;;;;10483274;28;20651;-78
2022/12/26 11:40:24;;;;;;;2.22;2.13;;;;;;;;;;10486827;28;20294;-78
2022/12/26 11:45:28;;;;;;;4.05;3.10;;;;;;;;;;10499822;28;20267;-79
2022/12/26 11:50:30;;;;;;;2.97;2.88;;;;;;;;;;10500070;28;20218;-79
2022/12/26 11:55:33;;;;;;;2.50;2.40;;;;;;;;;;10475277;28;20201;-79
2022/12/26 12:00:34;;;;;;;9.13;3.17;;;;;;;;;;10500600;28;20681;-80
2022/12/26 12:05:38;;;;;;;3.22;2.92;;;;;;;;;;10500387;28;20728;-79
2022/12/26 12:10:57;;;;;;;2.80;2.70;;;;;;;;;;10502696;28;20640;-79
2022/12/26 12:16:04;;;;;;;1.90;1.80;;;;;;;;;;10487807;28;20216;-83
2022/12/26 12:21:31;;;;;;;1.33;1.33;;;;;;;;;;10504057;28;20782;-80
2022/12/26 12:26:35;;;;;;;1.70;1.60;;;;;;;;;;10494802;28;20213;-81
2022/12/26 12:31:48;;;;;;;1.05;1.05;;;;;;;;;;10498244;28;20701;-84
2022/12/26 12:37:01;;;;;;;0.80;0.80;;;;;;;;;;10494027;28;20248;-81
2022/12/26 12:42:11;;;;;;;1.05;0.90;;;;;;;;;;10478263;28;20800;-82
2022/12/26 12:47:21;;;;;;;0.82;0.82;;;;;;;;;;10497791;28;20263;-80
2022/12/26 12:52:25;;;;;;;0.82;0.82;;;;;;;;;;10499568;28;20588;-78
2022/12/26 12:57:45;;;;;;;1.17;0.43;;;;;;;;;;10501805;28;20210;-79
2022/12/26 13:02:58;;;;;;;0.88;0.88;;;;;;;;;;10504006;28;20209;-92
2022/12/26 13:08:05;;;;;;;1.00;1.00;;;;;;;;;;10511665;28;20213;-89
2022/12/26 13:13:15;;;;;;;5.57;1.50;;;;;;;;;;10505229;28;20215;-89
2022/12/26 13:18:18;;;;;;;0.50;0.40;;;;;;;;;;10507223;28;20221;-90
2022/12/26 13:28:54;;;;;;;0.50;0.50;;;;;;;;;;10485611;28;20209;-87
2022/12/26 13:33:55;;;;;;;0.30;0.30;;;;;;;;;;10486781;28;20236;-90
2022/12/26 13:38:56;;;;;;;0.63;0.40;;;;;;;;;;10505662;28;20760;-86
2022/12/26 13:44:04;;;;;;;0.47;0.30;;;;;;;;;;10507064;28;20197;-84
2022/12/26 13:49:25;;;;;;;3.65;0.40;;;;;;;;;;10502816;28;20225;-89
2022/12/26 13:54:27;;;;;;;1.13;0.40;;;;;;;;;;10513187;28;20210;-88
2022/12/26 13:59:32;;;;;;;0.40;0.40;;;;;;;;;;10520746;28;20222;-88
2022/12/26 14:04:49;;;;;;;0.30;0.30;;;;;;;;;;10512322;28;20206;-88
2022/12/26 14:09:53;;;;;;;1.00;0.40;;;;;;;;;;10506129;28;20213;-88
2022/12/26 14:15:00;;;;;;;0.80;0.52;;;;;;;;;;10491887;28;20209;-91
2022/12/26 14:20:20;;;;;;;0.82;0.40;;;;;;;;;;10510856;28;20217;-89
2022/12/26 14:25:27;;;;;;;2.05;0.80;;;;;;;;;;10514506;28;20202;-89
2022/12/26 14:30:28;;;;;;;0.85;0.60;;;;;;;;;;10492721;28;20271;-88
2022/12/26 14:35:35;;;;;;;0.40;0.40;;;;;;;;;;10508420;28;20217;-90
2022/12/26 14:40:37;;;;;;;1.00;1.00;;;;;;;;;;10513829;28;20233;-89
2022/12/26 14:45:41;;;;;;;0.40;0.40;;;;;;;;;;10512079;28;20761;-89
2022/12/26 14:50:42;;;;;;;0.35;0.30;;;;;;;;;;10507747;28;20226;-90
2022/12/26 14:55:47;;;;;;;0.77;0.77;;;;;;;;;;10513201;28;20582;-88
2022/12/26 15:00:49;;;;;;;2.35;1.48;;;;;;;;;;10509842;28;20247;-89
2022/12/26 15:05:51;;;;;;;0.65;0.40;;;;;;;;;;10508270;28;20214;-91
2022/12/26 15:11:24;;;;;;;0.30;0.30;;;;;;;;;;10508502;28;20839;-91
2022/12/26 15:16:45;;;;;;;0.52;0.30;;;;;;;;;;10453591;28;20241;-91
2022/12/26 15:21:55;;;;;;;5.55;0.70;;;;;;;;;;10472290;28;20242;-90
2022/12/26 15:27:12;;;;;;;1.70;0.65;;;;;;;;;;10514539;28;20201;-90
2022/12/26 15:32:18;;;;;;;0.50;0.50;;;;;;;;;;10508297;28;20221;-88
2022/12/26 15:37:40;;;;;;;0.82;0.40;;;;;;;;;;10511037;28;20705;-88
2022/12/26 15:42:52;;;;;;;1.88;0.50;;;;;;;;;;10490583;28;20681;-87
2022/12/26 15:47:58;;;;;;;2.38;0.52;;;;;;;;;;10509547;28;20243;-88
2022/12/26 15:53:06;;;;;;;2.50;0.70;;;;;;;;;;10505070;28;20217;-85
2022/12/26 15:58:34;;;;;;;1.48;0.45;;;;;;;;;;10504147;28;20244;-81
2022/12/26 16:03:47;;;;;;;1.08;0.50;;;;;;;;;;10487652;28;20213;-79
2022/12/26 16:08:55;;;;;;;0.40;0.40;;;;;;;;;;10486375;28;20270;-82
2022/12/26 16:13:56;;;;;;;1.23;0.43;;;;;;;;;;10504249;28;20209;-81
2022/12/26 16:18:57;;;;;;;1.58;0.50;;;;;;;;;;10502908;28;20218;-80
2022/12/26 16:23:59;;;;;;;1.35;0.60;;;;;;;;;;10500094;28;20209;-80
2022/12/26 16:29:01;;;;;;;0.57;0.57;;;;;;;;;;10484552;28;20218;-79
2022/12/26 16:34:02;;;;;;;0.77;0.52;;;;;;;;;;10504183;28;20708;-80
2022/12/26 16:39:07;;;;;;;2.05;0.40;;;;;;;;;;10507228;28;20275;-80
2022/12/26 16:44:22;;;;;;;0.70;0.50;;;;;;;;;;10503163;28;20251;-80
2022/12/26 16:49:25;;;;;;;0.55;0.55;;;;;;;;;;10484870;28;20222;-81
2022/12/26 16:54:26;;;;;;;1.23;0.43;;;;;;;;;;10504645;28;20213;-81
2022/12/26 16:59:30;;;;;;;2.50;0.95;;;;;;;;;;10494500;28;20220;-83
2022/12/26 17:04:31;;;;;;;1.45;0.65;;;;;;;;;;10502427;28;20327;-80
2022/12/26 17:09:40;;;;;;;0.90;0.88;;;;;;;;;;10492217;28;20221;-80
2022/12/26 17:14:42;;;;;;;1.50;0.65;;;;;;;;;;10501180;28;20238;-80
2022/12/26 17:19:43;;;;;;;0.63;0.63;;;;;;;;;;10501320;28;20209;-80
2022/12/26 17:24:45;;;;;;;2.55;0.60;;;;;;;;;;10503285;28;20205;-81
2022/12/26 17:29:47;;;;;;;0.43;0.43;;;;;;;;;;10485445;28;20222;-81
2022/12/26 17:34:48;;;;;;;0.38;0.30;;;;;;;;;;10488288;28;20726;-83
2022/12/26 17:40:17;;;;;;;1.45;0.45;;;;;;;;;;10500774;28;20302;-82
2022/12/26 17:45:23;;;;;;;2.63;0.40;;;;;;;;;;10460024;28;20209;-82
2022/12/26 17:50:29;;;;;;;0.50;0.40;;;;;;;;;;10505417;28;20345;-81
2022/12/26 17:55:30;;;;;;;1.70;0.30;;;;;;;;;;10502197;28;20236;-85
2022/12/26 18:00:31;;;;;;;1.23;0.32;;;;;;;;;;10500644;28;20225;-82
2022/12/26 18:05:33;;;;;;;1.13;0.35;;;;;;;;;;10502156;28;20212;-82
2022/12/26 18:10:35;;;;;;;1.70;0.30;;;;;;;;;;10501177;28;20210;-83
2022/12/26 18:15:36;;;;;;;2.03;0.50;;;;;;;;;;10500984;28;20309;-84
2022/12/26 18:20:37;;;;;;;1.27;0.30;;;;;;;;;;10502490;28;20237;-81
2022/12/26 18:25:38;;;;;;;1.83;0.35;;;;;;;;;;10504730;28;20302;-83
2022/12/26 18:30:39;;;;;;;0.88;0.20;;;;;;;;;;10505027;28;20269;-81
2022/12/26 18:35:41;;;;;;;0.35;0.35;;;;;;;;;;10499173;28;20248;-84
2022/12/26 18:40:43;;;;;;;0.77;0.28;;;;;;;;;;10502771;28;20260;-84
2022/12/26 18:45:44;;;;;;;0.80;0.20;;;;;;;;;;10505307;28;20630;-84
2022/12/26 18:50:46;;;;;;;2.28;0.40;;;;;;;;;;10508055;28;20274;-85
2022/12/26 18:55:47;;;;;;;2.60;0.35;;;;;;;;;;10505392;28;20674;-85
2022/12/26 19:00:48;;;;;;;3.47;1.95;;;;;;;;;;10508333;28;20222;-83
2022/12/26 19:05:49;;;;;;;3.45;1.13;;;;;;;;;;10505071;28;20220;-84
2022/12/26 19:10:50;;;;;;;3.58;0.50;;;;;;;;;;10504753;28;20268;-85
2022/12/26 19:15:51;;;;;;;0.75;0.30;;;;;;;;;;10497397;28;20274;-86
2022/12/26 19:20:52;;;;;;;4.28;0.60;;;;;;;;;;10493495;28;20225;-86
2022/12/26 19:25:53;;;;;;;1.10;0.30;;;;;;;;;;10502378;28;20585;-85
2022/12/26 19:30:54;;;;;;;1.63;0.40;;;;;;;;;;10495571;28;20606;-84
2022/12/26 19:35:55;;;;;;;2.63;0.40;;;;;;;;;;10492814;28;20713;-85
2022/12/26 19:41:06;;;;;;;0.30;0.30;;;;;;;;;;10486720;28;20642;-85
2022/12/26 19:46:09;;;;;;;3.70;0.52;;;;;;;;;;10508723;28;20217;-85
2022/12/26 19:51:12;;;;;;;2.40;0.50;;;;;;;;;;10492307;28;20218;-84
2022/12/26 19:56:13;;;;;;;4.70;0.35;;;;;;;;;;10485692;28;20217;-85
2022/12/26 20:01:18;;;;;;;3.33;0.55;;;;;;;;;;10506970;28;20228;-85
2022/12/26 20:06:21;;;;;;;1.75;0.60;;;;;;;;;;10492324;28;20557;-85
2022/12/26 20:11:24;;;;;;;2.00;0.40;;;;;;;;;;10489735;28;20737;-83
2022/12/26 20:16:25;;;;;;;0.80;0.47;;;;;;;;;;10508395;28;20214;-84
2022/12/26 20:21:27;;;;;;;7.88;0.40;;;;;;;;;;10509045;28;20702;-84
2022/12/26 20:26:28;;;;;;;4.72;0.98;;;;;;;;;;10506583;28;20220;-85
2022/12/26 20:31:30;;;;;;;1.85;0.40;;;;;;;;;;10509346;28;20209;-85
2022/12/26 20:36:33;;;;;;;1.00;0.43;;;;;;;;;;10504369;28;20217;-83
2022/12/26 20:41:35;;;;;;;0.85;0.60;;;;;;;;;;10486135;28;20221;-87
2022/12/26 20:46:36;;;;;;;1.90;0.40;;;;;;;;;;10505046;28;20210;-79
2022/12/26 20:51:38;;;;;;;3.13;0.52;;;;;;;;;;10503196;28;20247;-81
2022/12/26 20:56:40;;;;;;;2.70;0.50;;;;;;;;;;10499407;28;20216;-82
2022/12/26 21:01:41;;;;;;;2.15;0.38;;;;;;;;;;10506930;28;20335;-86
2022/12/26 21:06:44;;;;;;;2.50;0.40;;;;;;;;;;10497847;28;20212;-81
2022/12/26 21:11:45;;;;;;;0.98;0.50;;;;;;;;;;10479919;28;20715;-71
2022/12/26 21:16:51;;;;;;;1.25;0.50;;;;;;;;;;10495755;28;20237;-72
2022/12/26 21:21:53;;;;;;;6.40;0.45;;;;;;;;;;10479609;28;20641;-80
2022/12/26 21:26:54;;;;;;;1.95;0.63;;;;;;;;;;10479317;28;20217;-73
2022/12/26 21:31:55;;;;;;;0.47;0.32;;;;;;;;;;10496666;28;20626;-81
2022/12/26 21:42:17;;;;;;;1.95;0.40;;;;;;;;;;10461885;28;20313;-82
2022/12/26 21:47:18;;;;;;;2.20;0.60;;;;;;;;;;10461436;28;20225;-80
2022/12/26 21:52:19;;;;;;;1.83;0.90;;;;;;;;;;10446093;28;20228;-88
2022/12/26 21:57:20;;;;;;;7.13;1.90;;;;;;;;;;10463179;28;20217;-88
2022/12/26 22:07:41;;;;;;;3.17;0.45;;;;;;;;;;10455782;28;20593;-88
2022/12/26 22:12:58;;;;;;;7.22;0.70;;;;;;;;;;10458486;28;20221;-88
2022/12/26 22:17:59;;;;;;;5.22;0.57;;;;;;;;;;10451944;28;20561;-88
2022/12/26 22:23:00;;;;;;;2.80;0.60;;;;;;;;;;10470740;28;20228;-88
2022/12/26 22:28:01;;;;;;;9.02;0.85;;;;;;;;;;10468472;28;20218;-88
2022/12/26 22:33:02;;;;;;;3.30;0.55;;;;;;;;;;10477787;28;20221;-87
2022/12/26 22:38:03;;;;;;;1.75;0.47;;;;;;;;;;10513824;28;20684;-87
2022/12/26 22:43:04;;;;;;;0.77;0.43;;;;;;;;;;10512243;28;20257;-88
2022/12/26 22:48:05;;;;;;;3.90;0.40;;;;;;;;;;10502983;28;20275;-87
2022/12/26 22:53:06;;;;;;;0.60;0.35;;;;;;;;;;10493075;28;20312;-89
2022/12/26 22:58:07;;;;;;;0.57;0.38;;;;;;;;;;10507677;28;20217;-87
2022/12/26 23:03:09;;;;;;;5.47;1.10;;;;;;;;;;10495872;28;20746;-88
2022/12/26 23:08:13;;;;;;;4.88;0.50;;;;;;;;;;10492675;28;20304;-86
2022/12/26 23:13:15;;;;;;;2.05;0.73;;;;;;;;;;10508600;28;20217;-88
2022/12/26 23:23:40;;;;;;;1.50;0.35;;;;;;;;;;10505351;28;20715;-88
2022/12/26 23:34:01;;;;;;;1.13;0.65;;;;;;;;;;10485598;28;20222;-87
2022/12/26 23:39:03;;;;;;;2.17;0.47;;;;;;;;;;10509098;28;20655;-86
2022/12/26 23:44:04;;;;;;;1.17;0.70;;;;;;;;;;10508983;28;20244;-87
2022/12/26 23:49:05;;;;;;;1.92;0.28;;;;;;;;;;10509553;28;20557;-87
2022/12/26 23:54:06;;;;;;;1.48;0.50;;;;;;;;;;10489884;28;20213;-86
2022/12/26 23:59:07;;;;;;;2.97;0.65;;;;;;;;;;10507815;28;20287;-87
